Cisne, Illinois
Current Conditions -  °F | °C
As of 5:15 AM on Sunday 21 Dec 2014 (Local Time) from KFWC Reporting Station
Haze Haze  
Wind Chill: 27°   Ceiling: Unl
Heat Index: 27°   Visibility: 5mi
Dew Point: 25°   Wind: 0mph
Humidity: 94%   Direction: NA
Pressure: 30.26"   Gusts: NA
Location:  38.52°N, 88.44°W
Report Text: KFWC 211115Z AUTO 00000KT 5SM BR CLR M03/M04 A3026 RMK AO1 T10281037
Loading
Personal Weather Stations






























Interactive Weather Map New forecast layout! Learn more

10-Day Weather Forecast

Advertisements
Track Severe Weather on mobile